sensor_id;sensor_type;location;lat;lon;timestamp;P1;durP1;ratioP1;P2;durP2;ratioP2
33714;SDS011;20043;50.998;4.754;2023-04-19T00:01:44;29.52;;;24.55;;
33714;SDS011;20043;50.998;4.754;2023-04-19T00:04:10;28.73;;;24.20;;
33714;SDS011;20043;50.998;4.754;2023-04-19T00:06:35;28.80;;;24.65;;
33714;SDS011;20043;50.998;4.754;2023-04-19T00:09:01;30.25;;;25.20;;
33714;SDS011;20043;50.998;4.754;2023-04-19T00:11:27;28.52;;;24.75;;
33714;SDS011;20043;50.998;4.754;2023-04-19T00:13:53;29.65;;;23.73;;
33714;SDS011;20043;50.998;4.754;2023-04-19T00:16:18;29.33;;;24.33;;
33714;SDS011;20043;50.998;4.754;2023-04-19T00:18:44;29.88;;;24.30;;
33714;SDS011;20043;50.998;4.754;2023-04-19T00:21:10;31.38;;;25.70;;
33714;SDS011;20043;50.998;4.754;2023-04-19T00:23:36;30.20;;;25.80;;
33714;SDS011;20043;50.998;4.754;2023-04-19T00:26:02;30.38;;;24.92;;
33714;SDS011;20043;50.998;4.754;2023-04-19T00:28:28;29.15;;;24.45;;
33714;SDS011;20043;50.998;4.754;2023-04-19T00:30:54;31.48;;;24.38;;
33714;SDS011;20043;50.998;4.754;2023-04-19T00:33:20;30.30;;;24.95;;
33714;SDS011;20043;50.998;4.754;2023-04-19T00:35:45;32.10;;;25.45;;
33714;SDS011;20043;50.998;4.754;2023-04-19T00:38:11;31.90;;;25.15;;
33714;SDS011;20043;50.998;4.754;2023-04-19T00:40:37;36.50;;;27.15;;
33714;SDS011;20043;50.998;4.754;2023-04-19T00:43:02;31.85;;;25.73;;
33714;SDS011;20043;50.998;4.754;2023-04-19T00:45:28;27.80;;;24.83;;
33714;SDS011;20043;50.998;4.754;2023-04-19T00:47:54;32.15;;;25.40;;
33714;SDS011;20043;50.998;4.754;2023-04-19T00:50:20;31.33;;;25.00;;
33714;SDS011;20043;50.998;4.754;2023-04-19T00:52:46;34.28;;;25.92;;
33714;SDS011;20043;50.998;4.754;2023-04-19T00:55:12;28.85;;;24.45;;
33714;SDS011;20043;50.998;4.754;2023-04-19T00:57:38;27.02;;;23.73;;
33714;SDS011;20043;50.998;4.754;2023-04-19T01:00:04;31.38;;;24.90;;
33714;SDS011;20043;50.998;4.754;2023-04-19T01:02:32;28.98;;;25.00;;
33714;SDS011;20043;50.998;4.754;2023-04-19T01:04:57;32.50;;;24.95;;
33714;SDS011;20043;50.998;4.754;2023-04-19T01:07:23;32.28;;;25.02;;
33714;SDS011;20043;50.998;4.754;2023-04-19T01:09:49;29.08;;;24.88;;
33714;SDS011;20043;50.998;4.754;2023-04-19T01:12:15;30.95;;;24.38;;
33714;SDS011;20043;50.998;4.754;2023-04-19T01:14:40;28.38;;;24.90;;
33714;SDS011;20043;50.998;4.754;2023-04-19T01:17:06;31.25;;;23.77;;
33714;SDS011;20043;50.998;4.754;2023-04-19T01:19:32;29.48;;;24.95;;
33714;SDS011;20043;50.998;4.754;2023-04-19T01:21:59;31.13;;;25.08;;
33714;SDS011;20043;50.998;4.754;2023-04-19T01:24:27;28.50;;;24.45;;
33714;SDS011;20043;50.998;4.754;2023-04-19T01:26:52;29.92;;;24.25;;
33714;SDS011;20043;50.998;4.754;2023-04-19T01:29:18;28.35;;;23.95;;
33714;SDS011;20043;50.998;4.754;2023-04-19T01:31:45;30.17;;;25.35;;
33714;SDS011;20043;50.998;4.754;2023-04-19T01:34:15;31.98;;;25.08;;
33714;SDS011;20043;50.998;4.754;2023-04-19T01:36:41;34.33;;;24.58;;
33714;SDS011;20043;50.998;4.754;2023-04-19T01:39:06;30.85;;;24.17;;
33714;SDS011;20043;50.998;4.754;2023-04-19T01:41:32;33.67;;;25.25;;
33714;SDS011;20043;50.998;4.754;2023-04-19T01:43:57;31.25;;;24.85;;
33714;SDS011;20043;50.998;4.754;2023-04-19T01:46:24;30.10;;;23.98;;
33714;SDS011;20043;50.998;4.754;2023-04-19T01:48:50;32.22;;;24.45;;
33714;SDS011;20043;50.998;4.754;2023-04-19T01:51:15;29.13;;;24.40;;
33714;SDS011;20043;50.998;4.754;2023-04-19T01:53:41;31.15;;;23.98;;
33714;SDS011;20043;50.998;4.754;2023-04-19T01:56:07;30.30;;;23.55;;
33714;SDS011;20043;50.998;4.754;2023-04-19T01:58:32;28.30;;;23.63;;
33714;SDS011;20043;50.998;4.754;2023-04-19T02:00:58;31.30;;;24.65;;
33714;SDS011;20043;50.998;4.754;2023-04-19T02:03:24;28.00;;;24.13;;
33714;SDS011;20043;50.998;4.754;2023-04-19T02:05:49;28.50;;;23.23;;
33714;SDS011;20043;50.998;4.754;2023-04-19T02:08:15;29.00;;;24.15;;
33714;SDS011;20043;50.998;4.754;2023-04-19T02:10:41;31.00;;;24.08;;
33714;SDS011;20043;50.998;4.754;2023-04-19T02:13:07;29.25;;;23.98;;
33714;SDS011;20043;50.998;4.754;2023-04-19T02:15:32;28.85;;;23.73;;
33714;SDS011;20043;50.998;4.754;2023-04-19T02:18:00;27.10;;;23.20;;
33714;SDS011;20043;50.998;4.754;2023-04-19T02:20:26;31.83;;;24.05;;
33714;SDS011;20043;50.998;4.754;2023-04-19T02:22:51;28.27;;;23.60;;
33714;SDS011;20043;50.998;4.754;2023-04-19T02:25:17;32.65;;;23.50;;
33714;SDS011;20043;50.998;4.754;2023-04-19T02:27:43;29.15;;;24.20;;
33714;SDS011;20043;50.998;4.754;2023-04-19T02:30:09;26.23;;;23.42;;
33714;SDS011;20043;50.998;4.754;2023-04-19T02:32:35;29.05;;;23.92;;
33714;SDS011;20043;50.998;4.754;2023-04-19T02:35:00;26.98;;;23.95;;
33714;SDS011;20043;50.998;4.754;2023-04-19T02:37:26;27.13;;;23.58;;
33714;SDS011;20043;50.998;4.754;2023-04-19T02:39:51;29.23;;;22.73;;
33714;SDS011;20043;50.998;4.754;2023-04-19T02:42:17;28.65;;;22.58;;
33714;SDS011;20043;50.998;4.754;2023-04-19T02:44:43;27.77;;;22.98;;
33714;SDS011;20043;50.998;4.754;2023-04-19T02:47:08;25.98;;;22.33;;
33714;SDS011;20043;50.998;4.754;2023-04-19T02:49:34;28.48;;;23.33;;
33714;SDS011;20043;50.998;4.754;2023-04-19T02:52:01;33.17;;;23.20;;
33714;SDS011;20043;50.998;4.754;2023-04-19T02:54:27;26.58;;;22.67;;
33714;SDS011;20043;50.998;4.754;2023-04-19T02:56:53;29.35;;;23.20;;
33714;SDS011;20043;50.998;4.754;2023-04-19T02:59:18;27.23;;;22.00;;
33714;SDS011;20043;50.998;4.754;2023-04-19T03:01:44;28.83;;;23.88;;
33714;SDS011;20043;50.998;4.754;2023-04-19T03:04:09;28.27;;;22.63;;
33714;SDS011;20043;50.998;4.754;2023-04-19T03:06:35;28.50;;;22.50;;
33714;SDS011;20043;50.998;4.754;2023-04-19T03:09:01;29.45;;;22.45;;
33714;SDS011;20043;50.998;4.754;2023-04-19T03:11:27;28.15;;;22.17;;
33714;SDS011;20043;50.998;4.754;2023-04-19T03:13:52;27.90;;;22.67;;
33714;SDS011;20043;50.998;4.754;2023-04-19T03:16:18;28.55;;;22.65;;
33714;SDS011;20043;50.998;4.754;2023-04-19T03:18:43;29.83;;;22.05;;
33714;SDS011;20043;50.998;4.754;2023-04-19T03:21:09;28.30;;;22.65;;
33714;SDS011;20043;50.998;4.754;2023-04-19T03:23:35;31.00;;;21.92;;
33714;SDS011;20043;50.998;4.754;2023-04-19T03:26:01;30.50;;;22.13;;
33714;SDS011;20043;50.998;4.754;2023-04-19T03:28:26;29.98;;;22.92;;
33714;SDS011;20043;50.998;4.754;2023-04-19T03:30:52;30.63;;;23.17;;
33714;SDS011;20043;50.998;4.754;2023-04-19T03:33:18;28.60;;;23.05;;
33714;SDS011;20043;50.998;4.754;2023-04-19T03:35:43;26.60;;;22.15;;
33714;SDS011;20043;50.998;4.754;2023-04-19T03:38:09;29.17;;;22.30;;
33714;SDS011;20043;50.998;4.754;2023-04-19T03:40:38;27.67;;;22.05;;
33714;SDS011;20043;50.998;4.754;2023-04-19T03:43:04;31.15;;;24.02;;
33714;SDS011;20043;50.998;4.754;2023-04-19T03:45:29;31.67;;;22.67;;
33714;SDS011;20043;50.998;4.754;2023-04-19T03:47:55;27.23;;;21.67;;
33714;SDS011;20043;50.998;4.754;2023-04-19T03:50:20;26.45;;;22.08;;
33714;SDS011;20043;50.998;4.754;2023-04-19T03:52:46;30.13;;;23.08;;
33714;SDS011;20043;50.998;4.754;2023-04-19T03:55:11;27.73;;;23.10;;
33714;SDS011;20043;50.998;4.754;2023-04-19T03:57:38;28.63;;;23.13;;
33714;SDS011;20043;50.998;4.754;2023-04-19T04:00:04;28.20;;;22.13;;
33714;SDS011;20043;50.998;4.754;2023-04-19T04:02:32;29.83;;;23.58;;
33714;SDS011;20043;50.998;4.754;2023-04-19T04:05:01;28.65;;;23.63;;
33714;SDS011;20043;50.998;4.754;2023-04-19T04:07:26;27.23;;;23.15;;
33714;SDS011;20043;50.998;4.754;2023-04-19T04:09:52;31.52;;;24.30;;
33714;SDS011;20043;50.998;4.754;2023-04-19T04:12:17;30.98;;;23.85;;
33714;SDS011;20043;50.998;4.754;2023-04-19T04:14:43;34.17;;;24.13;;
33714;SDS011;20043;50.998;4.754;2023-04-19T04:17:09;30.25;;;23.77;;
33714;SDS011;20043;50.998;4.754;2023-04-19T04:19:34;34.17;;;24.52;;
33714;SDS011;20043;50.998;4.754;2023-04-19T04:22:00;34.10;;;24.15;;
33714;SDS011;20043;50.998;4.754;2023-04-19T04:24:26;29.63;;;23.70;;
33714;SDS011;20043;50.998;4.754;2023-04-19T04:26:52;36.90;;;25.67;;
33714;SDS011;20043;50.998;4.754;2023-04-19T04:29:17;36.30;;;26.30;;
33714;SDS011;20043;50.998;4.754;2023-04-19T04:31:43;33.30;;;25.80;;
33714;SDS011;20043;50.998;4.754;2023-04-19T04:34:08;35.17;;;26.02;;
33714;SDS011;20043;50.998;4.754;2023-04-19T04:36:34;35.60;;;25.85;;
33714;SDS011;20043;50.998;4.754;2023-04-19T04:39:01;38.08;;;27.08;;
33714;SDS011;20043;50.998;4.754;2023-04-19T04:41:28;37.95;;;27.88;;
33714;SDS011;20043;50.998;4.754;2023-04-19T04:43:55;38.10;;;28.02;;
33714;SDS011;20043;50.998;4.754;2023-04-19T04:46:22;36.83;;;27.92;;
33714;SDS011;20043;50.998;4.754;2023-04-19T04:48:48;41.50;;;29.33;;
33714;SDS011;20043;50.998;4.754;2023-04-19T04:51:13;35.05;;;27.92;;
33714;SDS011;20043;50.998;4.754;2023-04-19T04:53:39;37.72;;;28.77;;
33714;SDS011;20043;50.998;4.754;2023-04-19T04:56:04;41.67;;;28.35;;
33714;SDS011;20043;50.998;4.754;2023-04-19T04:58:30;34.85;;;27.70;;
33714;SDS011;20043;50.998;4.754;2023-04-19T05:01:02;35.95;;;27.77;;
33714;SDS011;20043;50.998;4.754;2023-04-19T05:03:28;37.13;;;28.00;;
33714;SDS011;20043;50.998;4.754;2023-04-19T05:05:54;38.47;;;28.45;;
33714;SDS011;20043;50.998;4.754;2023-04-19T05:08:20;40.53;;;29.42;;
33714;SDS011;20043;50.998;4.754;2023-04-19T05:10:45;38.83;;;29.58;;
33714;SDS011;20043;50.998;4.754;2023-04-19T05:13:11;37.50;;;27.77;;
33714;SDS011;20043;50.998;4.754;2023-04-19T05:15:37;38.33;;;27.98;;
33714;SDS011;20043;50.998;4.754;2023-04-19T05:18:02;37.65;;;28.63;;
33714;SDS011;20043;50.998;4.754;2023-04-19T05:20:28;38.30;;;28.45;;
33714;SDS011;20043;50.998;4.754;2023-04-19T05:22:57;37.13;;;28.48;;
33714;SDS011;20043;50.998;4.754;2023-04-19T05:25:24;37.55;;;27.20;;
33714;SDS011;20043;50.998;4.754;2023-04-19T05:27:50;38.17;;;28.17;;
33714;SDS011;20043;50.998;4.754;2023-04-19T05:30:15;37.63;;;27.35;;
33714;SDS011;20043;50.998;4.754;2023-04-19T05:32:41;38.42;;;27.55;;
33714;SDS011;20043;50.998;4.754;2023-04-19T05:35:07;40.85;;;26.83;;
33714;SDS011;20043;50.998;4.754;2023-04-19T05:37:33;34.95;;;26.00;;
33714;SDS011;20043;50.998;4.754;2023-04-19T05:40:00;35.20;;;26.52;;
33714;SDS011;20043;50.998;4.754;2023-04-19T05:42:29;33.10;;;25.55;;
33714;SDS011;20043;50.998;4.754;2023-04-19T05:44:55;35.53;;;26.02;;
33714;SDS011;20043;50.998;4.754;2023-04-19T05:47:21;33.80;;;26.25;;
33714;SDS011;20043;50.998;4.754;2023-04-19T05:49:46;32.78;;;25.80;;
33714;SDS011;20043;50.998;4.754;2023-04-19T05:52:12;34.25;;;25.83;;
33714;SDS011;20043;50.998;4.754;2023-04-19T05:54:37;30.85;;;25.00;;
33714;SDS011;20043;50.998;4.754;2023-04-19T05:57:03;34.10;;;25.40;;
33714;SDS011;20043;50.998;4.754;2023-04-19T05:59:28;32.90;;;25.30;;
33714;SDS011;20043;50.998;4.754;2023-04-19T06:01:54;34.95;;;23.92;;
33714;SDS011;20043;50.998;4.754;2023-04-19T06:04:22;35.72;;;23.50;;
33714;SDS011;20043;50.998;4.754;2023-04-19T06:06:48;31.38;;;23.02;;
33714;SDS011;20043;50.998;4.754;2023-04-19T06:09:14;32.33;;;24.00;;
33714;SDS011;20043;50.998;4.754;2023-04-19T06:11:40;28.85;;;21.95;;
33714;SDS011;20043;50.998;4.754;2023-04-19T06:14:05;27.77;;;22.13;;
33714;SDS011;20043;50.998;4.754;2023-04-19T06:16:31;30.73;;;22.60;;
33714;SDS011;20043;50.998;4.754;2023-04-19T06:18:56;31.98;;;22.90;;
33714;SDS011;20043;50.998;4.754;2023-04-19T06:21:22;27.88;;;22.02;;
33714;SDS011;20043;50.998;4.754;2023-04-19T06:23:55;30.20;;;21.95;;
33714;SDS011;20043;50.998;4.754;2023-04-19T06:26:20;30.00;;;22.05;;
33714;SDS011;20043;50.998;4.754;2023-04-19T06:28:46;28.48;;;21.20;;
33714;SDS011;20043;50.998;4.754;2023-04-19T06:31:12;28.10;;;21.58;;
33714;SDS011;20043;50.998;4.754;2023-04-19T06:33:37;30.00;;;22.23;;
33714;SDS011;20043;50.998;4.754;2023-04-19T06:36:03;28.90;;;21.85;;
33714;SDS011;20043;50.998;4.754;2023-04-19T06:38:29;29.42;;;21.15;;
33714;SDS011;20043;50.998;4.754;2023-04-19T06:40:54;26.05;;;21.25;;
33714;SDS011;20043;50.998;4.754;2023-04-19T06:43:20;27.05;;;20.20;;
33714;SDS011;20043;50.998;4.754;2023-04-19T06:45:46;32.03;;;21.00;;
33714;SDS011;20043;50.998;4.754;2023-04-19T06:48:12;26.80;;;19.85;;
33714;SDS011;20043;50.998;4.754;2023-04-19T06:50:37;27.00;;;19.60;;
33714;SDS011;20043;50.998;4.754;2023-04-19T06:53:03;24.13;;;19.42;;
33714;SDS011;20043;50.998;4.754;2023-04-19T06:55:28;23.70;;;19.02;;
33714;SDS011;20043;50.998;4.754;2023-04-19T06:57:54;27.52;;;19.60;;
33714;SDS011;20043;50.998;4.754;2023-04-19T07:00:20;26.20;;;18.38;;
33714;SDS011;20043;50.998;4.754;2023-04-19T07:02:47;24.60;;;18.85;;
33714;SDS011;20043;50.998;4.754;2023-04-19T07:05:14;25.85;;;17.90;;
33714;SDS011;20043;50.998;4.754;2023-04-19T07:07:39;27.65;;;17.98;;
33714;SDS011;20043;50.998;4.754;2023-04-19T07:10:06;23.02;;;17.33;;
33714;SDS011;20043;50.998;4.754;2023-04-19T07:12:32;23.65;;;17.33;;
33714;SDS011;20043;50.998;4.754;2023-04-19T07:14:58;25.95;;;17.35;;
33714;SDS011;20043;50.998;4.754;2023-04-19T07:17:23;22.95;;;16.73;;
33714;SDS011;20043;50.998;4.754;2023-04-19T07:19:49;28.88;;;17.30;;
33714;SDS011;20043;50.998;4.754;2023-04-19T07:22:14;20.45;;;15.02;;
33714;SDS011;20043;50.998;4.754;2023-04-19T07:24:40;21.33;;;15.55;;
33714;SDS011;20043;50.998;4.754;2023-04-19T07:27:07;22.05;;;15.20;;
33714;SDS011;20043;50.998;4.754;2023-04-19T07:29:35;19.08;;;13.52;;
33714;SDS011;20043;50.998;4.754;2023-04-19T07:32:02;17.70;;;13.75;;
33714;SDS011;20043;50.998;4.754;2023-04-19T07:34:27;18.58;;;14.20;;
33714;SDS011;20043;50.998;4.754;2023-04-19T07:36:53;19.75;;;13.55;;
33714;SDS011;20043;50.998;4.754;2023-04-19T07:39:18;16.35;;;12.95;;
33714;SDS011;20043;50.998;4.754;2023-04-19T07:41:44;16.50;;;12.20;;
33714;SDS011;20043;50.998;4.754;2023-04-19T07:44:10;15.98;;;12.20;;
33714;SDS011;20043;50.998;4.754;2023-04-19T07:46:37;18.63;;;11.85;;
33714;SDS011;20043;50.998;4.754;2023-04-19T07:49:03;16.98;;;11.57;;
33714;SDS011;20043;50.998;4.754;2023-04-19T07:51:28;16.30;;;11.00;;
33714;SDS011;20043;50.998;4.754;2023-04-19T07:53:54;17.55;;;10.43;;
33714;SDS011;20043;50.998;4.754;2023-04-19T07:56:20;18.75;;;11.35;;
33714;SDS011;20043;50.998;4.754;2023-04-19T07:58:46;12.50;;;10.80;;
33714;SDS011;20043;50.998;4.754;2023-04-19T08:01:12;18.17;;;10.48;;
33714;SDS011;20043;50.998;4.754;2023-04-19T08:03:38;13.27;;;10.82;;
33714;SDS011;20043;50.998;4.754;2023-04-19T08:06:04;13.50;;;10.05;;
33714;SDS011;20043;50.998;4.754;2023-04-19T08:08:32;10.75;;;9.63;;
33714;SDS011;20043;50.998;4.754;2023-04-19T08:10:57;17.30;;;8.77;;
33714;SDS011;20043;50.998;4.754;2023-04-19T08:13:23;12.43;;;8.85;;
33714;SDS011;20043;50.998;4.754;2023-04-19T08:15:48;11.60;;;8.43;;
33714;SDS011;20043;50.998;4.754;2023-04-19T08:18:14;14.13;;;9.98;;
33714;SDS011;20043;50.998;4.754;2023-04-19T08:20:40;11.23;;;8.90;;
33714;SDS011;20043;50.998;4.754;2023-04-19T08:23:06;12.10;;;9.52;;
33714;SDS011;20043;50.998;4.754;2023-04-19T08:25:32;11.55;;;9.32;;
33714;SDS011;20043;50.998;4.754;2023-04-19T08:27:58;11.13;;;8.57;;
33714;SDS011;20043;50.998;4.754;2023-04-19T08:30:24;14.50;;;9.00;;
33714;SDS011;20043;50.998;4.754;2023-04-19T08:32:50;12.45;;;8.50;;
33714;SDS011;20043;50.998;4.754;2023-04-19T08:35:15;11.18;;;8.10;;
33714;SDS011;20043;50.998;4.754;2023-04-19T08:37:41;10.60;;;8.25;;
33714;SDS011;20043;50.998;4.754;2023-04-19T08:40:07;11.00;;;8.38;;
33714;SDS011;20043;50.998;4.754;2023-04-19T08:42:34;10.88;;;7.65;;
33714;SDS011;20043;50.998;4.754;2023-04-19T08:45:00;10.85;;;7.47;;
33714;SDS011;20043;50.998;4.754;2023-04-19T08:47:29;11.13;;;7.90;;
33714;SDS011;20043;50.998;4.754;2023-04-19T08:50:00;13.45;;;7.78;;
33714;SDS011;20043;50.998;4.754;2023-04-19T08:52:27;10.38;;;7.47;;
33714;SDS011;20043;50.998;4.754;2023-04-19T08:54:57;10.07;;;7.50;;
33714;SDS011;20043;50.998;4.754;2023-04-19T08:57:25;11.23;;;7.93;;
33714;SDS011;20043;50.998;4.754;2023-04-19T08:59:51;13.32;;;8.13;;
33714;SDS011;20043;50.998;4.754;2023-04-19T09:02:19;11.55;;;7.32;;
33714;SDS011;20043;50.998;4.754;2023-04-19T09:04:45;11.27;;;6.97;;
33714;SDS011;20043;50.998;4.754;2023-04-19T09:07:23;9.45;;;7.10;;
33714;SDS011;20043;50.998;4.754;2023-04-19T09:10:12;11.95;;;7.65;;
33714;SDS011;20043;50.998;4.754;2023-04-19T09:12:38;11.23;;;7.40;;
33714;SDS011;20043;50.998;4.754;2023-04-19T09:15:05;14.10;;;7.40;;
33714;SDS011;20043;50.998;4.754;2023-04-19T09:17:35;9.43;;;7.15;;
33714;SDS011;20043;50.998;4.754;2023-04-19T09:20:01;11.38;;;7.03;;
33714;SDS011;20043;50.998;4.754;2023-04-19T09:22:28;11.50;;;7.18;;
33714;SDS011;20043;50.998;4.754;2023-04-19T09:24:55;11.70;;;7.20;;
33714;SDS011;20043;50.998;4.754;2023-04-19T09:27:29;11.15;;;6.60;;
33714;SDS011;20043;50.998;4.754;2023-04-19T09:29:56;11.95;;;7.45;;
33714;SDS011;20043;50.998;4.754;2023-04-19T09:32:23;9.45;;;6.93;;
33714;SDS011;20043;50.998;4.754;2023-04-19T09:34:51;9.75;;;7.05;;
33714;SDS011;20043;50.998;4.754;2023-04-19T09:37:17;8.10;;;6.75;;
33714;SDS011;20043;50.998;4.754;2023-04-19T09:39:43;11.90;;;7.13;;
33714;SDS011;20043;50.998;4.754;2023-04-19T09:42:08;8.90;;;6.88;;
33714;SDS011;20043;50.998;4.754;2023-04-19T09:44:34;10.10;;;6.38;;
33714;SDS011;20043;50.998;4.754;2023-04-19T09:47:00;7.65;;;6.72;;
33714;SDS011;20043;50.998;4.754;2023-04-19T09:49:26;9.45;;;6.78;;
33714;SDS011;20043;50.998;4.754;2023-04-19T09:51:52;10.32;;;6.68;;
33714;SDS011;20043;50.998;4.754;2023-04-19T09:54:19;9.18;;;6.22;;
33714;SDS011;20043;50.998;4.754;2023-04-19T09:56:46;9.38;;;6.57;;
33714;SDS011;20043;50.998;4.754;2023-04-19T09:59:12;9.95;;;6.57;;
33714;SDS011;20043;50.998;4.754;2023-04-19T10:04:08;9.07;;;6.72;;
33714;SDS011;20043;50.998;4.754;2023-04-19T10:06:41;15.63;;;6.85;;
33714;SDS011;20043;50.998;4.754;2023-04-19T10:09:08;10.90;;;7.00;;
33714;SDS011;20043;50.998;4.754;2023-04-19T10:11:35;11.30;;;6.90;;
33714;SDS011;20043;50.998;4.754;2023-04-19T10:14:08;12.85;;;6.97;;
33714;SDS011;20043;50.998;4.754;2023-04-19T10:16:35;9.50;;;7.13;;
33714;SDS011;20043;50.998;4.754;2023-04-19T10:19:03;8.75;;;7.10;;
33714;SDS011;20043;50.998;4.754;2023-04-19T10:21:32;12.02;;;6.65;;
33714;SDS011;20043;50.998;4.754;2023-04-19T10:23:58;10.07;;;7.03;;
33714;SDS011;20043;50.998;4.754;2023-04-19T10:26:25;10.95;;;7.47;;
33714;SDS011;20043;50.998;4.754;2023-04-19T10:28:51;8.68;;;7.18;;
33714;SDS011;20043;50.998;4.754;2023-04-19T10:31:19;12.40;;;6.93;;
33714;SDS011;20043;50.998;4.754;2023-04-19T10:33:48;13.10;;;6.95;;
33714;SDS011;20043;50.998;4.754;2023-04-19T10:36:16;11.90;;;6.78;;
33714;SDS011;20043;50.998;4.754;2023-04-19T10:38:45;9.75;;;6.78;;
33714;SDS011;20043;50.998;4.754;2023-04-19T10:41:19;12.32;;;7.47;;
33714;SDS011;20043;50.998;4.754;2023-04-19T10:43:46;13.55;;;7.25;;
33714;SDS011;20043;50.998;4.754;2023-04-19T10:48:58;10.05;;;6.97;;
33714;SDS011;20043;50.998;4.754;2023-04-19T10:51:34;9.85;;;7.15;;
33714;SDS011;20043;50.998;4.754;2023-04-19T10:59:28;9.70;;;6.97;;
33714;SDS011;20043;50.998;4.754;2023-04-19T11:01:56;10.98;;;6.47;;
33714;SDS011;20043;50.998;4.754;2023-04-19T11:06:56;14.00;;;7.43;;
33714;SDS011;20043;50.998;4.754;2023-04-19T11:12:09;10.93;;;6.95;;
33714;SDS011;20043;50.998;4.754;2023-04-19T11:14:40;11.95;;;6.32;;
33714;SDS011;20043;50.998;4.754;2023-04-19T11:17:13;9.75;;;6.50;;
33714;SDS011;20043;50.998;4.754;2023-04-19T11:19:53;6.72;;;5.68;;
33714;SDS011;20043;50.998;4.754;2023-04-19T11:22:39;9.02;;;6.53;;
33714;SDS011;20043;50.998;4.754;2023-04-19T11:27:39;7.63;;;5.45;;
33714;SDS011;20043;50.998;4.754;2023-04-19T11:30:06;7.68;;;5.40;;
33714;SDS011;20043;50.998;4.754;2023-04-19T11:32:48;11.77;;;6.20;;
33714;SDS011;20043;50.998;4.754;2023-04-19T11:35:22;11.02;;;5.80;;
33714;SDS011;20043;50.998;4.754;2023-04-19T11:37:50;8.60;;;5.75;;
33714;SDS011;20043;50.998;4.754;2023-04-19T11:40:17;7.25;;;5.55;;
33714;SDS011;20043;50.998;4.754;2023-04-19T11:42:44;10.45;;;5.70;;
33714;SDS011;20043;50.998;4.754;2023-04-19T11:45:10;13.43;;;5.22;;
33714;SDS011;20043;50.998;4.754;2023-04-19T11:47:48;10.98;;;4.80;;
33714;SDS011;20043;50.998;4.754;2023-04-19T11:50:33;9.63;;;4.45;;
33714;SDS011;20043;50.998;4.754;2023-04-19T11:53:16;10.32;;;4.38;;
33714;SDS011;20043;50.998;4.754;2023-04-19T11:58:26;9.73;;;4.72;;
33714;SDS011;20043;50.998;4.754;2023-04-19T12:01:18;10.63;;;4.70;;
33714;SDS011;20043;50.998;4.754;2023-04-19T12:03:44;5.78;;;4.00;;
33714;SDS011;20043;50.998;4.754;2023-04-19T12:06:13;10.45;;;5.15;;
33714;SDS011;20043;50.998;4.754;2023-04-19T12:08:46;9.45;;;5.22;;
33714;SDS011;20043;50.998;4.754;2023-04-19T12:11:14;9.13;;;5.15;;
33714;SDS011;20043;50.998;4.754;2023-04-19T12:13:41;13.90;;;5.10;;
33714;SDS011;20043;50.998;4.754;2023-04-19T12:16:08;7.80;;;4.40;;
33714;SDS011;20043;50.998;4.754;2023-04-19T12:18:48;11.27;;;4.78;;
33714;SDS011;20043;50.998;4.754;2023-04-19T12:21:24;9.93;;;5.00;;
33714;SDS011;20043;50.998;4.754;2023-04-19T12:23:57;6.57;;;3.88;;
33714;SDS011;20043;50.998;4.754;2023-04-19T12:26:25;4.45;;;3.58;;
33714;SDS011;20043;50.998;4.754;2023-04-19T12:28:52;5.97;;;3.70;;
33714;SDS011;20043;50.998;4.754;2023-04-19T12:31:22;8.73;;;3.72;;
33714;SDS011;20043;50.998;4.754;2023-04-19T12:33:48;6.45;;;3.63;;
33714;SDS011;20043;50.998;4.754;2023-04-19T12:36:14;10.27;;;3.22;;
33714;SDS011;20043;50.998;4.754;2023-04-19T12:38:39;9.38;;;4.10;;
33714;SDS011;20043;50.998;4.754;2023-04-19T12:41:05;8.93;;;4.25;;
33714;SDS011;20043;50.998;4.754;2023-04-19T12:43:31;11.55;;;3.92;;
33714;SDS011;20043;50.998;4.754;2023-04-19T12:45:57;10.68;;;3.60;;
33714;SDS011;20043;50.998;4.754;2023-04-19T12:48:24;7.78;;;2.83;;
33714;SDS011;20043;50.998;4.754;2023-04-19T12:50:50;8.88;;;3.40;;
33714;SDS011;20043;50.998;4.754;2023-04-19T12:53:16;7.18;;;2.90;;
33714;SDS011;20043;50.998;4.754;2023-04-19T12:55:41;8.02;;;2.95;;
33714;SDS011;20043;50.998;4.754;2023-04-19T12:58:11;6.13;;;3.00;;
33714;SDS011;20043;50.998;4.754;2023-04-19T13:00:37;6.50;;;2.90;;
33714;SDS011;20043;50.998;4.754;2023-04-19T13:03:03;10.25;;;2.72;;
33714;SDS011;20043;50.998;4.754;2023-04-19T13:05:28;6.80;;;2.50;;
33714;SDS011;20043;50.998;4.754;2023-04-19T13:07:54;5.15;;;2.28;;
33714;SDS011;20043;50.998;4.754;2023-04-19T13:10:20;10.80;;;3.00;;
33714;SDS011;20043;50.998;4.754;2023-04-19T13:12:46;8.70;;;2.40;;
33714;SDS011;20043;50.998;4.754;2023-04-19T13:15:11;7.88;;;2.20;;
33714;SDS011;20043;50.998;4.754;2023-04-19T13:17:37;7.00;;;1.92;;
33714;SDS011;20043;50.998;4.754;2023-04-19T13:20:03;3.83;;;2.20;;
33714;SDS011;20043;50.998;4.754;2023-04-19T13:22:30;6.20;;;2.10;;
33714;SDS011;20043;50.998;4.754;2023-04-19T13:24:56;7.35;;;1.90;;
33714;SDS011;20043;50.998;4.754;2023-04-19T13:27:22;10.20;;;2.30;;
33714;SDS011;20043;50.998;4.754;2023-04-19T13:29:48;9.40;;;2.28;;
33714;SDS011;20043;50.998;4.754;2023-04-19T13:32:13;9.48;;;2.38;;
33714;SDS011;20043;50.998;4.754;2023-04-19T13:34:39;5.38;;;1.80;;
33714;SDS011;20043;50.998;4.754;2023-04-19T13:37:05;4.50;;;1.65;;
33714;SDS011;20043;50.998;4.754;2023-04-19T13:39:31;11.38;;;2.20;;
33714;SDS011;20043;50.998;4.754;2023-04-19T13:41:57;5.65;;;1.80;;
33714;SDS011;20043;50.998;4.754;2023-04-19T13:44:22;5.95;;;1.90;;
33714;SDS011;20043;50.998;4.754;2023-04-19T13:46:49;4.47;;;2.00;;
33714;SDS011;20043;50.998;4.754;2023-04-19T13:49:16;6.38;;;2.47;;
33714;SDS011;20043;50.998;4.754;2023-04-19T13:51:42;3.53;;;2.03;;
33714;SDS011;20043;50.998;4.754;2023-04-19T13:54:08;11.20;;;1.95;;
33714;SDS011;20043;50.998;4.754;2023-04-19T13:56:33;3.13;;;1.88;;
33714;SDS011;20043;50.998;4.754;2023-04-19T13:58:59;6.35;;;1.73;;
33714;SDS011;20043;50.998;4.754;2023-04-19T14:01:25;4.38;;;2.10;;
33714;SDS011;20043;50.998;4.754;2023-04-19T14:03:51;5.68;;;2.28;;
33714;SDS011;20043;50.998;4.754;2023-04-19T14:06:17;6.45;;;2.20;;
33714;SDS011;20043;50.998;4.754;2023-04-19T14:08:42;5.53;;;2.55;;
33714;SDS011;20043;50.998;4.754;2023-04-19T14:11:08;8.63;;;2.28;;
33714;SDS011;20043;50.998;4.754;2023-04-19T14:13:34;6.22;;;2.45;;
33714;SDS011;20043;50.998;4.754;2023-04-19T14:16:00;10.68;;;2.40;;
33714;SDS011;20043;50.998;4.754;2023-04-19T14:18:25;3.92;;;2.20;;
33714;SDS011;20043;50.998;4.754;2023-04-19T14:20:51;8.18;;;2.33;;
33714;SDS011;20043;50.998;4.754;2023-04-19T14:23:17;5.53;;;2.38;;
33714;SDS011;20043;50.998;4.754;2023-04-19T14:25:42;4.75;;;1.85;;
33714;SDS011;20043;50.998;4.754;2023-04-19T14:28:08;6.70;;;2.20;;
33714;SDS011;20043;50.998;4.754;2023-04-19T14:30:36;4.85;;;1.92;;
33714;SDS011;20043;50.998;4.754;2023-04-19T14:33:02;3.17;;;1.90;;
33714;SDS011;20043;50.998;4.754;2023-04-19T14:35:27;8.13;;;2.47;;
33714;SDS011;20043;50.998;4.754;2023-04-19T14:37:54;6.63;;;2.40;;
33714;SDS011;20043;50.998;4.754;2023-04-19T14:40:19;4.78;;;2.20;;
33714;SDS011;20043;50.998;4.754;2023-04-19T14:42:45;8.48;;;1.83;;
33714;SDS011;20043;50.998;4.754;2023-04-19T14:45:10;7.60;;;2.42;;
33714;SDS011;20043;50.998;4.754;2023-04-19T14:47:36;7.70;;;2.20;;
33714;SDS011;20043;50.998;4.754;2023-04-19T14:50:01;7.47;;;2.00;;